createdAt,value
2022-11-05T00:00:18.571Z,16.67
2022-11-05T00:03:03.808Z,20.05
2022-11-05T00:05:49.702Z,16.38
2022-11-05T00:08:34.740Z,17.35
2022-11-05T00:11:01.363Z,14.00
2022-11-05T00:13:46.828Z,16.35
2022-11-05T00:16:31.708Z,19.23
2022-11-05T00:19:06.971Z,12.25
2022-11-05T00:21:53.563Z,23.92
2022-11-05T00:24:44.561Z,13.98
2022-11-05T00:27:14.449Z,16.73
2022-11-05T00:29:40.941Z,15.68
2022-11-05T00:32:07.498Z,20.23
2022-11-05T00:34:33.955Z,17.25
2022-11-05T00:37:00.452Z,21.35
2022-11-05T00:39:26.923Z,21.25
2022-11-05T00:42:11.699Z,18.33
2022-11-05T00:44:56.679Z,20.15
2022-11-05T00:47:41.451Z,23.85
2022-11-05T00:50:13.428Z,15.15
2022-11-05T00:55:33.472Z,18.17
2022-11-05T00:58:00.963Z,16.45
2022-11-05T01:00:29.744Z,21.20
2022-11-05T01:03:12.259Z,20.73
2022-11-05T01:05:44.462Z,16.08
2022-11-05T01:10:47.338Z,17.38
2022-11-05T01:13:16.648Z,17.33
2022-11-05T01:15:43.990Z,12.02
2022-11-05T01:18:11.446Z,21.92
2022-11-05T01:20:38.485Z,14.65
2022-11-05T01:23:11.927Z,13.57
2022-11-05T01:25:40.302Z,12.63
2022-11-05T01:28:06.930Z,17.52
2022-11-05T01:30:33.410Z,14.73
2022-11-05T01:32:59.851Z,13.77
2022-11-05T01:35:30.898Z,18.17
2022-11-05T01:38:03.155Z,12.27
2022-11-05T01:40:32.926Z,17.88
2022-11-05T01:42:59.359Z,17.75
2022-11-05T01:45:30.990Z,17.10
2022-11-05T01:48:07.988Z,15.13
2022-11-05T01:51:06.332Z,12.38
2022-11-05T01:53:39.746Z,16.40
2022-11-05T01:56:17.544Z,19.95
2022-11-05T01:59:30.457Z,18.67
2022-11-05T02:01:57.545Z,21.33
2022-11-05T02:04:35.567Z,17.27
2022-11-05T02:07:04.864Z,21.10
2022-11-05T02:09:56.192Z,12.40
2022-11-05T02:12:23.909Z,11.95
2022-11-05T02:14:50.382Z,15.45
2022-11-05T02:17:29.477Z,14.40
2022-11-05T02:20:14.194Z,17.85
2022-11-05T02:23:01.982Z,16.52
2022-11-05T02:25:40.115Z,18.55
2022-11-05T02:28:31.320Z,12.77
2022-11-05T02:31:06.102Z,12.82
2022-11-05T02:33:56.703Z,13.50
2022-11-05T02:36:34.024Z,17.67
2022-11-05T02:39:11.174Z,12.98
2022-11-05T02:41:50.458Z,17.05
2022-11-05T02:44:44.202Z,12.50
2022-11-05T02:47:47.753Z,16.50
2022-11-05T02:50:45.131Z,18.65
2022-11-05T02:53:21.736Z,17.70
2022-11-05T02:56:01.284Z,14.50
2022-11-05T02:58:28.894Z,17.23
2022-11-05T03:00:56.556Z,15.88
2022-11-05T03:03:35.697Z,12.43
2022-11-05T03:06:45.936Z,15.20
2022-11-05T03:09:30.422Z,14.55
2022-11-05T03:12:22.785Z,19.80
2022-11-05T03:17:38.935Z,21.23
2022-11-05T03:20:23.595Z,15.15
2022-11-05T03:23:14.810Z,20.20
2022-11-05T03:25:49.842Z,18.67
2022-11-05T03:28:20.024Z,17.63
2022-11-05T03:30:50.415Z,15.68
2022-11-05T03:33:25.400Z,18.63
2022-11-05T03:35:58.664Z,12.52
2022-11-05T03:38:32.527Z,24.48
2022-11-05T03:41:03.856Z,12.43
2022-11-05T03:43:35.417Z,15.15
2022-11-05T03:46:18.041Z,16.25
2022-11-05T03:48:49.149Z,18.33
2022-11-05T03:51:43.695Z,20.20
2022-11-05T03:54:10.867Z,13.45
2022-11-05T03:57:03.410Z,17.15
2022-11-05T03:59:32.981Z,14.82
2022-11-05T04:01:59.531Z,13.05
2022-11-05T04:04:26.193Z,14.23
2022-11-05T04:07:11.115Z,15.88
2022-11-05T04:09:55.935Z,10.88
2022-11-05T04:12:41.245Z,13.80
2022-11-05T04:15:08.436Z,12.02
2022-11-05T04:17:34.916Z,17.60
2022-11-05T04:20:20.344Z,14.80
2022-11-05T04:23:05.006Z,14.68
2022-11-05T04:25:31.502Z,15.75
2022-11-05T04:28:00.993Z,13.57
2022-11-05T04:30:27.760Z,16.15
2022-11-05T04:32:58.476Z,15.45
2022-11-05T04:35:26.359Z,15.60
2022-11-05T04:37:53.157Z,19.23
2022-11-05T04:40:19.627Z,13.82
2022-11-05T04:42:46.129Z,12.50
2022-11-05T04:45:12.682Z,14.30
2022-11-05T04:47:39.136Z,10.68
2022-11-05T04:50:05.986Z,10.15
2022-11-05T04:52:32.426Z,16.52
2022-11-05T04:54:58.886Z,15.57
2022-11-05T04:57:25.336Z,18.88
2022-11-05T04:59:52.153Z,14.88
2022-11-05T05:02:18.688Z,14.60
2022-11-05T05:04:45.154Z,17.65
2022-11-05T05:07:11.640Z,15.63
2022-11-05T05:09:38.135Z,18.65
2022-11-05T05:12:04.808Z,16.50
2022-11-05T05:14:31.309Z,17.30
2022-11-05T05:16:57.812Z,15.10
2022-11-05T05:19:25.006Z,14.75
2022-11-05T05:21:51.552Z,23.23
2022-11-05T05:24:21.038Z,18.55
2022-11-05T05:26:49.584Z,18.63
2022-11-05T05:29:19.570Z,11.70
2022-11-05T05:31:46.056Z,12.90
2022-11-05T05:34:14.277Z,15.30
2022-11-05T05:36:40.763Z,19.70
2022-11-05T05:39:11.135Z,12.60
2022-11-05T05:41:37.757Z,15.68
2022-11-05T05:44:05.328Z,21.73
2022-11-05T05:46:35.119Z,19.50
2022-11-05T05:49:01.570Z,19.77
2022-11-05T05:51:28.073Z,15.27
2022-11-05T05:53:54.913Z,14.88
2022-11-05T05:56:21.512Z,16.08
2022-11-05T05:58:48.098Z,18.42
2022-11-05T06:01:19.242Z,20.83
2022-11-05T06:03:46.534Z,18.15
2022-11-05T06:06:14.830Z,13.13
2022-11-05T06:08:42.208Z,18.88
2022-11-05T06:11:09.462Z,17.98
2022-11-05T06:13:37.226Z,17.63
2022-11-05T06:16:06.113Z,21.17
2022-11-05T06:18:33.763Z,16.48
2022-11-05T06:21:11.851Z,17.67
2022-11-05T06:23:42.895Z,15.32
2022-11-05T06:26:12.714Z,16.73
2022-11-05T06:28:39.292Z,11.98
2022-11-05T06:31:06.046Z,20.13
2022-11-05T06:33:32.554Z,17.05
2022-11-05T06:36:00.318Z,21.00
2022-11-05T06:38:27.147Z,17.05
2022-11-05T06:40:53.597Z,13.00
2022-11-05T06:43:20.059Z,19.30
2022-11-05T06:45:46.546Z,17.90
2022-11-05T06:48:13.040Z,12.90
2022-11-05T06:50:44.179Z,14.70
2022-11-05T06:53:11.097Z,16.63
2022-11-05T06:55:37.940Z,16.00
2022-11-05T06:58:04.606Z,17.38
2022-11-05T07:00:32.711Z,18.63
2022-11-05T07:03:07.143Z,24.80
2022-11-05T07:05:36.629Z,15.23
2022-11-05T07:08:06.391Z,15.05
2022-11-05T07:10:33.107Z,16.92
2022-11-05T07:13:02.505Z,11.05
2022-11-05T07:15:33.221Z,21.63
2022-11-05T07:18:00.975Z,15.00
2022-11-05T07:20:33.477Z,16.63
2022-11-05T07:23:05.594Z,19.70
2022-11-05T07:25:32.935Z,16.70
2022-11-05T07:28:00.358Z,18.15
2022-11-05T07:30:27.719Z,17.67
2022-11-05T07:32:54.340Z,15.43
2022-11-05T07:35:21.068Z,12.35
2022-11-05T07:37:49.526Z,17.83
2022-11-05T07:40:20.955Z,19.42
2022-11-05T07:42:50.141Z,20.15
2022-11-05T07:45:16.904Z,16.15
2022-11-05T07:48:00.842Z,16.38
2022-11-05T07:50:31.938Z,20.23
2022-11-05T07:53:15.681Z,16.87
2022-11-05T07:55:42.782Z,14.82
2022-11-05T07:58:09.882Z,13.80
2022-11-05T08:00:36.764Z,13.73
2022-11-05T08:03:08.157Z,17.08
2022-11-05T08:08:08.036Z,17.73
2022-11-05T08:10:35.340Z,16.92
2022-11-05T08:13:02.266Z,11.07
2022-11-05T08:15:29.112Z,12.30
2022-11-05T08:18:04.369Z,21.23
2022-11-05T08:20:31.040Z,16.20
2022-11-05T08:22:58.012Z,17.08
2022-11-05T08:25:25.038Z,23.08
2022-11-05T08:28:00.317Z,10.27
2022-11-05T08:30:27.320Z,17.58
2022-11-05T08:32:59.783Z,13.55
2022-11-05T08:35:27.184Z,13.63
2022-11-05T08:38:02.760Z,11.93
2022-11-05T08:40:31.858Z,15.13
2022-11-05T08:42:59.631Z,14.65
2022-11-05T08:45:27.295Z,12.75
2022-11-05T08:48:01.423Z,12.80
2022-11-05T08:50:28.641Z,18.33
2022-11-05T08:52:55.201Z,12.55
2022-11-05T08:55:22.333Z,17.98
2022-11-05T08:57:54.565Z,16.75
2022-11-05T09:00:21.145Z,17.65
2022-11-05T09:02:47.634Z,16.27
2022-11-05T09:05:14.139Z,13.57
2022-11-05T09:07:40.633Z,12.65
2022-11-05T09:10:07.357Z,12.27
2022-11-05T09:12:33.898Z,16.58
2022-11-05T09:15:00.527Z,14.73
2022-11-05T09:17:27.128Z,14.00
2022-11-05T09:19:53.684Z,11.88
2022-11-05T09:22:20.152Z,12.20
2022-11-05T09:24:46.690Z,14.32
2022-11-05T09:27:14.587Z,15.52
2022-11-05T09:29:42.146Z,10.35
2022-11-05T09:32:09.259Z,14.15
2022-11-05T09:34:36.010Z,8.10
2022-11-05T09:37:02.675Z,15.88
2022-11-05T09:39:29.376Z,11.90
2022-11-05T09:42:01.935Z,12.02
2022-11-05T09:44:49.739Z,13.75
2022-11-05T09:47:26.311Z,12.90
2022-11-05T09:49:56.016Z,17.05
2022-11-05T09:52:29.491Z,12.18
2022-11-05T09:54:57.704Z,11.00
2022-11-05T09:57:49.028Z,10.20
2022-11-05T10:00:19.129Z,12.43
2022-11-05T10:02:53.300Z,11.38
2022-11-05T10:05:22.038Z,12.90
2022-11-05T10:07:53.496Z,12.90
2022-11-05T10:10:42.102Z,9.48
2022-11-05T10:13:31.945Z,11.07
2022-11-05T10:16:01.762Z,11.32
2022-11-05T10:18:34.137Z,7.85
2022-11-05T10:21:01.271Z,14.10
2022-11-05T10:23:28.378Z,8.68
2022-11-05T10:26:01.859Z,10.93
2022-11-05T10:28:30.723Z,9.63
2022-11-05T10:31:07.904Z,9.02
2022-11-05T10:34:00.986Z,11.07
2022-11-05T10:36:36.161Z,11.07
2022-11-05T10:39:18.044Z,13.45
2022-11-05T10:41:52.594Z,10.52
2022-11-05T10:44:56.624Z,12.57
2022-11-05T10:47:47.525Z,13.10
2022-11-05T10:50:25.020Z,14.40
2022-11-05T10:52:51.442Z,11.80
2022-11-05T10:55:36.372Z,12.10
2022-11-05T10:58:15.175Z,14.05
2022-11-05T11:00:44.577Z,14.05
2022-11-05T11:03:40.150Z,8.32
2022-11-05T11:06:18.289Z,12.38
2022-11-05T11:08:47.153Z,11.50
2022-11-05T11:11:45.184Z,12.68
2022-11-05T11:14:11.676Z,12.68
2022-11-05T11:16:40.411Z,11.73
2022-11-05T11:19:39.197Z,12.50
2022-11-05T11:22:05.603Z,9.75
2022-11-05T11:24:39.335Z,12.95
2022-11-05T11:27:11.230Z,12.48
2022-11-05T11:29:45.220Z,9.35
2022-11-05T11:32:18.742Z,15.13
2022-11-05T11:34:48.954Z,11.35
2022-11-05T11:37:22.095Z,12.25
2022-11-05T11:39:53.431Z,10.45
2022-11-05T11:42:30.884Z,11.10
2022-11-05T11:45:00.498Z,9.00
2022-11-05T11:47:29.008Z,8.43
2022-11-05T11:49:58.235Z,9.23
2022-11-05T11:52:32.487Z,10.25
2022-11-05T11:55:19.388Z,12.35
2022-11-05T11:57:51.561Z,11.77
2022-11-05T12:00:19.677Z,10.90
2022-11-05T12:03:04.566Z,17.48
2022-11-05T12:05:53.033Z,11.18
2022-11-05T12:08:45.381Z,13.68
2022-11-05T12:11:29.506Z,11.13
2022-11-05T12:14:13.489Z,9.20
2022-11-05T12:16:54.641Z,11.95
2022-11-05T12:20:01.171Z,11.48
2022-11-05T12:22:43.114Z,8.32
2022-11-05T12:25:45.284Z,8.32
2022-11-05T12:28:24.245Z,8.00
2022-11-05T12:31:06.016Z,8.07
2022-11-05T12:34:09.811Z,10.45
2022-11-05T12:36:55.920Z,8.75
2022-11-05T12:39:43.483Z,7.75
2022-11-05T12:42:20.486Z,9.55
2022-11-05T12:45:09.580Z,11.30
2022-11-05T12:47:50.755Z,10.23
2022-11-05T12:50:23.007Z,9.95
2022-11-05T12:53:15.234Z,7.07
2022-11-05T12:55:48.723Z,7.50
2022-11-05T12:58:22.944Z,8.18
2022-11-05T13:00:59.065Z,9.25
2022-11-05T13:03:31.694Z,7.57
2022-11-05T13:06:05.605Z,5.50
2022-11-05T13:08:49.104Z,10.90
2022-11-05T13:11:31.889Z,5.53
2022-11-05T13:14:21.503Z,7.03
2022-11-05T13:16:52.541Z,7.60
2022-11-05T13:19:31.016Z,9.93
2022-11-05T13:22:09.586Z,7.68
2022-11-05T13:24:48.088Z,8.23
2022-11-05T13:27:23.459Z,7.88
2022-11-05T13:29:59.596Z,6.50
2022-11-05T13:32:31.989Z,10.35
2022-11-05T13:35:01.790Z,7.22
2022-11-05T13:37:51.998Z,6.47
2022-11-05T13:40:24.849Z,7.55
2022-11-05T13:43:00.086Z,6.97
2022-11-05T13:45:51.346Z,6.05
2022-11-05T13:48:48.829Z,6.13
2022-11-05T13:51:27.636Z,10.55
2022-11-05T13:54:05.432Z,6.97
2022-11-05T13:56:53.042Z,5.20
2022-11-05T13:59:38.235Z,7.60
2022-11-05T14:02:16.355Z,6.90
2022-11-05T14:04:50.436Z,7.97
2022-11-05T14:07:25.543Z,6.50
2022-11-05T14:10:05.232Z,4.47
2022-11-05T14:12:35.991Z,4.53
2022-11-05T14:15:10.729Z,8.45
2022-11-05T14:17:59.571Z,8.52
2022-11-05T14:20:32.169Z,9.15
2022-11-05T14:23:17.350Z,4.30
2022-11-05T14:25:43.776Z,4.57
2022-11-05T14:28:34.821Z,4.70
2022-11-05T14:31:02.451Z,7.82
2022-11-05T14:33:28.881Z,7.22
2022-11-05T14:36:19.913Z,5.10
2022-11-05T14:38:52.080Z,3.95
2022-11-05T14:41:19.965Z,5.93
2022-11-05T14:44:07.378Z,9.35
2022-11-05T14:47:05.314Z,5.53
2022-11-05T14:49:49.202Z,6.20
2022-11-05T14:52:18.687Z,8.00
2022-11-05T14:54:50.410Z,5.03
2022-11-05T14:57:42.473Z,6.18
2022-11-05T15:00:40.629Z,7.47
2022-11-05T15:03:46.429Z,5.50
2022-11-05T15:06:35.178Z,5.70
2022-11-05T15:09:11.364Z,4.20
2022-11-05T15:11:41.010Z,8.85
2022-11-05T15:14:22.649Z,4.75
2022-11-05T15:16:53.374Z,7.10
2022-11-05T15:19:26.969Z,7.75
2022-11-05T15:21:56.644Z,6.82
2022-11-05T15:24:24.051Z,5.97
2022-11-05T15:27:19.045Z,9.65
2022-11-05T15:29:45.849Z,4.53
2022-11-05T15:32:18.392Z,5.28
2022-11-05T15:34:55.823Z,9.85
2022-11-05T15:37:26.122Z,5.70
2022-11-05T15:39:55.777Z,7.03
2022-11-05T15:42:27.626Z,6.53
2022-11-05T15:44:56.497Z,7.38
2022-11-05T15:47:24.036Z,6.32
2022-11-05T15:49:53.441Z,12.43
2022-11-05T15:52:23.525Z,6.28
2022-11-05T15:55:14.869Z,8.48
2022-11-05T15:57:51.052Z,11.73
2022-11-05T16:00:25.397Z,13.57
2022-11-05T16:03:03.012Z,12.80
2022-11-05T16:05:33.510Z,14.38
2022-11-05T16:08:00.980Z,11.88
2022-11-05T16:10:32.864Z,8.80
2022-11-05T16:13:30.222Z,12.07
2022-11-05T16:15:59.574Z,11.40
2022-11-05T16:18:32.373Z,12.82
2022-11-05T16:21:19.375Z,17.92
2022-11-05T16:23:48.858Z,14.57
2022-11-05T16:29:30.804Z,15.15
2022-11-05T16:31:59.962Z,14.63
2022-11-05T16:34:35.289Z,13.35
2022-11-05T16:37:02.902Z,10.93
2022-11-05T16:39:29.470Z,8.80
2022-11-05T16:41:55.936Z,10.13
2022-11-05T16:44:22.814Z,7.45
2022-11-05T16:46:50.093Z,12.93
2022-11-05T16:49:17.462Z,10.07
2022-11-05T16:51:44.287Z,10.82
2022-11-05T16:54:11.013Z,10.60
2022-11-05T16:56:42.403Z,10.43
2022-11-05T17:01:41.952Z,18.55
2022-11-05T17:04:11.872Z,21.60
2022-11-05T17:06:38.392Z,19.20
2022-11-05T17:09:04.940Z,19.63
2022-11-05T17:11:31.407Z,17.00
2022-11-05T17:13:57.914Z,22.23
2022-11-05T17:16:24.407Z,25.00
2022-11-05T17:18:50.959Z,22.73
2022-11-05T17:21:17.643Z,24.70
2022-11-05T17:23:44.814Z,24.27
2022-11-05T17:26:12.431Z,20.85
2022-11-05T17:28:40.525Z,22.95
2022-11-05T17:31:09.697Z,23.33
2022-11-05T17:33:36.422Z,21.40
2022-11-05T17:36:08.684Z,23.67
2022-11-05T17:38:35.558Z,20.00
2022-11-05T17:41:02.394Z,11.98
2022-11-05T17:43:28.860Z,11.30
2022-11-05T17:45:59.962Z,11.32
2022-11-05T17:48:29.656Z,8.80
2022-11-05T17:50:57.018Z,7.35
2022-11-05T17:53:23.488Z,8.32
2022-11-05T17:55:50.045Z,8.50
2022-11-05T17:58:16.600Z,8.25
2022-11-05T18:00:44.254Z,11.73
2022-11-05T18:03:12.227Z,10.30
2022-11-05T18:05:40.077Z,7.97
2022-11-05T18:08:07.571Z,9.00
2022-11-05T18:10:37.645Z,9.18
2022-11-05T18:13:04.544Z,10.73
2022-11-05T18:15:31.028Z,6.93
2022-11-05T18:17:57.603Z,6.07
2022-11-05T18:20:24.250Z,10.20
2022-11-05T18:22:51.132Z,6.75
2022-11-05T18:25:18.427Z,8.00
2022-11-05T18:27:45.094Z,10.77
2022-11-05T18:30:15.327Z,8.27
2022-11-05T18:32:43.896Z,9.80
2022-11-05T18:35:11.004Z,9.75
2022-11-05T18:37:38.723Z,9.82
2022-11-05T18:40:06.239Z,13.43
2022-11-05T18:42:32.812Z,10.27
2022-11-05T18:45:01.762Z,11.88
2022-11-05T18:47:28.322Z,7.90
2022-11-05T18:49:54.793Z,10.20
2022-11-05T18:52:21.337Z,7.45
2022-11-05T18:54:47.898Z,6.95
2022-11-05T18:57:14.337Z,9.43
2022-11-05T18:59:42.178Z,9.30
2022-11-05T19:02:10.798Z,10.98
2022-11-05T19:04:37.768Z,10.13
2022-11-05T19:07:05.706Z,8.23
2022-11-05T19:09:36.426Z,8.18
2022-11-05T19:12:04.394Z,6.25
2022-11-05T19:14:31.411Z,9.10
2022-11-05T19:16:58.857Z,9.95
2022-11-05T19:19:25.906Z,10.63
2022-11-05T19:21:52.592Z,11.52
2022-11-05T19:24:19.046Z,7.13
2022-11-05T19:26:46.678Z,13.35
2022-11-05T19:29:13.181Z,10.05
2022-11-05T19:31:39.869Z,10.32
2022-11-05T19:34:06.453Z,10.57
2022-11-05T19:36:33.970Z,12.25
2022-11-05T19:39:03.577Z,7.85
2022-11-05T19:41:30.977Z,11.13
2022-11-05T19:44:01.731Z,9.18
2022-11-05T19:46:29.669Z,13.30
2022-11-05T19:48:56.781Z,11.02
2022-11-05T19:51:25.918Z,7.40
2022-11-05T19:53:53.452Z,13.00
2022-11-05T19:56:22.769Z,11.15
2022-11-05T19:58:49.816Z,11.95
2022-11-05T20:01:17.615Z,9.73
2022-11-05T20:03:44.839Z,9.40
2022-11-05T20:06:14.557Z,9.77
2022-11-05T20:08:59.814Z,9.07
2022-11-05T20:11:29.134Z,11.75
2022-11-05T20:13:56.417Z,9.15
2022-11-05T20:16:42.242Z,9.25
2022-11-05T20:19:14.836Z,8.73
2022-11-05T20:21:41.663Z,8.00
2022-11-05T20:24:08.417Z,12.82
2022-11-05T20:26:35.414Z,9.20
2022-11-05T20:29:02.011Z,10.70
2022-11-05T20:31:28.559Z,9.75
2022-11-05T20:33:55.304Z,8.00
2022-11-05T20:36:23.146Z,10.57
2022-11-05T20:38:55.331Z,11.82
2022-11-05T20:41:22.467Z,6.25
2022-11-05T20:43:49.042Z,9.45
2022-11-05T20:46:18.188Z,10.68
2022-11-05T20:48:45.466Z,9.15
2022-11-05T20:51:17.524Z,10.77
2022-11-05T20:56:22.983Z,7.88
2022-11-05T20:58:50.306Z,10.57
2022-11-05T21:01:18.371Z,11.30
2022-11-05T21:03:45.990Z,10.55
2022-11-05T21:06:13.044Z,6.45
2022-11-05T21:08:39.962Z,8.02
2022-11-05T21:11:07.372Z,11.88
2022-11-05T21:13:34.717Z,10.68
2022-11-05T21:16:02.264Z,10.40
2022-11-05T21:18:33.135Z,9.75
2022-11-05T21:21:02.507Z,8.90
2022-11-05T21:23:29.071Z,9.18
2022-11-05T21:25:55.730Z,8.30
2022-11-05T21:28:22.458Z,9.18
2022-11-05T21:30:49.204Z,7.13
2022-11-05T21:33:18.484Z,7.07
2022-11-05T21:35:48.452Z,6.78
2022-11-05T21:38:16.800Z,11.88
2022-11-05T21:40:44.053Z,9.23
2022-11-05T21:43:12.644Z,9.55
2022-11-05T21:45:40.387Z,10.52
2022-11-05T21:48:07.680Z,5.50
2022-11-05T21:50:53.186Z,6.32
2022-11-05T21:53:39.028Z,8.45
2022-11-05T21:56:41.882Z,8.57
2022-11-05T21:59:32.697Z,5.38
2022-11-05T22:02:02.412Z,7.63
2022-11-05T22:04:30.583Z,8.25
2022-11-05T22:06:57.205Z,7.22
2022-11-05T22:09:24.696Z,10.35
2022-11-05T22:11:51.390Z,12.68
2022-11-05T22:14:18.003Z,8.73
2022-11-05T22:16:44.500Z,8.93
2022-11-05T22:19:11.163Z,9.38
2022-11-05T22:21:38.151Z,9.20
2022-11-05T22:24:05.393Z,7.07
2022-11-05T22:26:31.895Z,7.65
2022-11-05T22:28:58.462Z,8.40
2022-11-05T22:31:24.960Z,8.98
2022-11-05T22:33:51.479Z,6.85
2022-11-05T22:36:18.494Z,8.45
2022-11-05T22:38:45.157Z,7.13
2022-11-05T22:41:14.802Z,8.85
2022-11-05T22:43:41.779Z,8.45
2022-11-05T22:46:14.493Z,6.13
2022-11-05T22:48:44.747Z,9.27
2022-11-05T22:51:15.095Z,6.78
2022-11-05T22:53:42.126Z,8.90
2022-11-05T22:56:11.700Z,5.78
2022-11-05T22:58:38.596Z,6.85
2022-11-05T23:01:11.714Z,9.00
2022-11-05T23:03:40.024Z,9.95
2022-11-05T23:06:31.577Z,9.85
2022-11-05T23:09:31.560Z,7.65
2022-11-05T23:11:58.846Z,7.55
2022-11-05T23:14:25.356Z,8.60
2022-11-05T23:17:10.545Z,6.90
2022-11-05T23:19:55.829Z,7.35
2022-11-05T23:22:47.698Z,7.18
2022-11-05T23:25:17.337Z,9.68
2022-11-05T23:27:50.963Z,10.38
2022-11-05T23:30:20.969Z,8.60
2022-11-05T23:32:48.163Z,10.90
2022-11-05T23:35:15.757Z,7.10
2022-11-05T23:38:01.080Z,7.72
2022-11-05T23:40:51.860Z,12.10
2022-11-05T23:43:36.841Z,9.60
2022-11-05T23:46:26.173Z,9.30
2022-11-05T23:48:52.617Z,9.93
2022-11-05T23:51:19.111Z,7.53
2022-11-05T23:53:45.565Z,11.38
2022-11-05T23:56:14.525Z,11.07
2022-11-05T23:58:42.386Z,7.55
